createdAt,value
2023-01-25T00:01:11.462Z,20.20
2023-01-25T00:03:39.491Z,19.42
2023-01-25T00:06:08.974Z,19.35
2023-01-25T00:08:38.491Z,19.92
2023-01-25T00:11:06.464Z,19.15
2023-01-25T00:13:34.214Z,20.63
2023-01-25T00:16:03.092Z,19.88
2023-01-25T00:18:31.202Z,19.15
2023-01-25T00:20:58.982Z,21.20
2023-01-25T00:23:28.058Z,19.42
2023-01-25T00:25:58.991Z,20.77
2023-01-25T00:28:27.107Z,20.40
2023-01-25T00:30:54.947Z,19.98
2023-01-25T00:33:36.455Z,21.35
2023-01-25T00:36:27.920Z,21.73
2023-01-25T00:38:58.939Z,20.75
2023-01-25T00:41:27.694Z,21.13
2023-01-25T00:43:55.961Z,20.75
2023-01-25T00:46:24.521Z,21.67
2023-01-25T00:48:54.674Z,22.00
2023-01-25T00:51:22.725Z,21.67
2023-01-25T00:53:51.003Z,21.42
2023-01-25T00:56:20.159Z,19.60
2023-01-25T00:58:48.196Z,21.05
2023-01-25T01:01:18.814Z,20.75
2023-01-25T01:03:46.821Z,22.27
2023-01-25T01:06:14.800Z,20.85
2023-01-25T01:08:43.477Z,21.45
2023-01-25T01:11:12.912Z,21.48
2023-01-25T01:13:42.380Z,22.35
2023-01-25T01:16:12.403Z,21.58
2023-01-25T01:18:43.566Z,20.15
2023-01-25T01:21:12.377Z,21.27
2023-01-25T01:23:40.508Z,21.88
2023-01-25T01:26:10.471Z,21.35
2023-01-25T01:28:39.634Z,21.33
2023-01-25T01:31:12.150Z,21.88
2023-01-25T01:33:44.105Z,21.65
2023-01-25T01:36:14.858Z,21.65
2023-01-25T01:38:43.122Z,21.45
2023-01-25T01:41:11.854Z,21.48
2023-01-25T01:43:40.253Z,22.60
2023-01-25T01:46:15.664Z,20.85
2023-01-25T01:48:47.074Z,21.75
2023-01-25T01:51:22.839Z,20.73
2023-01-25T01:53:54.285Z,22.20
2023-01-25T01:56:25.846Z,23.08
2023-01-25T01:58:55.754Z,22.67
2023-01-25T02:01:25.405Z,22.73
2023-01-25T02:03:53.959Z,22.77
2023-01-25T02:06:27.918Z,21.33
2023-01-25T02:08:56.018Z,24.13
2023-01-25T02:11:24.096Z,21.90
2023-01-25T02:13:52.958Z,23.00
2023-01-25T02:16:25.922Z,22.33
2023-01-25T02:18:55.427Z,23.40
2023-01-25T02:21:25.123Z,22.60
2023-01-25T02:23:56.824Z,23.40
2023-01-25T02:26:26.401Z,23.45
2023-01-25T02:28:57.301Z,23.02
2023-01-25T02:31:25.779Z,23.45
2023-01-25T02:33:53.683Z,22.92
2023-01-25T02:36:23.755Z,23.70
2023-01-25T02:38:54.609Z,23.77
2023-01-25T02:41:33.878Z,23.50
2023-01-25T02:44:04.295Z,24.30
2023-01-25T02:46:33.846Z,24.33
2023-01-25T02:49:03.541Z,24.17
2023-01-25T02:51:33.638Z,25.23
2023-01-25T02:54:01.641Z,23.50
2023-01-25T02:56:31.466Z,23.17
2023-01-25T02:58:59.580Z,24.15
2023-01-25T03:01:27.416Z,23.83
2023-01-25T03:03:55.414Z,23.98
2023-01-25T03:06:23.800Z,23.85
2023-01-25T03:08:51.905Z,23.73
2023-01-25T03:11:20.557Z,25.10
2023-01-25T03:13:49.836Z,24.45
2023-01-25T03:16:19.656Z,22.77
2023-01-25T03:18:48.302Z,23.42
2023-01-25T03:21:18.687Z,24.48
2023-01-25T03:23:47.900Z,24.67
2023-01-25T03:26:23.135Z,25.25
2023-01-25T03:29:15.466Z,25.45
2023-01-25T03:31:45.646Z,26.40
2023-01-25T03:34:14.011Z,25.83
2023-01-25T03:36:43.490Z,25.80
2023-01-25T03:39:11.451Z,25.95
2023-01-25T03:41:44.618Z,26.15
2023-01-25T03:44:15.949Z,25.00
2023-01-25T03:46:46.133Z,27.17
2023-01-25T03:49:14.263Z,26.08
2023-01-25T03:51:42.607Z,25.98
2023-01-25T03:54:10.929Z,26.33
2023-01-25T03:56:39.348Z,26.30
2023-01-25T03:59:20.947Z,26.98
2023-01-25T04:01:49.142Z,26.50
2023-01-25T04:04:17.033Z,27.05
2023-01-25T04:06:47.005Z,26.08
2023-01-25T04:09:15.532Z,26.45
2023-01-25T04:11:50.451Z,27.30
2023-01-25T04:14:31.877Z,27.77
2023-01-25T04:17:08.328Z,26.50
2023-01-25T04:19:43.199Z,26.58
2023-01-25T04:22:17.533Z,26.40
2023-01-25T04:24:45.650Z,28.58
2023-01-25T04:27:13.710Z,27.05
2023-01-25T04:29:58.556Z,26.63
2023-01-25T04:32:27.865Z,27.40
2023-01-25T04:34:56.557Z,25.52
2023-01-25T04:37:27.952Z,26.33
2023-01-25T04:39:59.192Z,25.17
2023-01-25T04:42:29.793Z,27.73
2023-01-25T04:44:59.777Z,25.92
2023-01-25T04:47:27.942Z,25.40
2023-01-25T04:49:56.024Z,27.38
2023-01-25T04:52:26.346Z,26.30
2023-01-25T04:54:54.327Z,27.23
2023-01-25T04:57:22.548Z,25.55
2023-01-25T04:59:53.586Z,25.35
2023-01-25T05:02:25.018Z,27.52
2023-01-25T05:04:53.759Z,26.80
2023-01-25T05:07:22.337Z,25.02
2023-01-25T05:09:50.757Z,25.92
2023-01-25T05:12:20.472Z,25.67
2023-01-25T05:15:02.197Z,26.30
2023-01-25T05:17:31.771Z,25.42
2023-01-25T05:20:00.934Z,26.23
2023-01-25T05:22:29.184Z,25.85
2023-01-25T05:24:59.245Z,25.55
2023-01-25T05:27:26.443Z,26.88
2023-01-25T05:29:54.419Z,27.08
2023-01-25T05:32:27.744Z,27.23
2023-01-25T05:34:58.313Z,28.30
2023-01-25T05:37:28.599Z,26.13
2023-01-25T05:40:02.411Z,26.20
2023-01-25T05:42:33.934Z,27.95
2023-01-25T05:45:02.727Z,29.20
2023-01-25T05:47:31.743Z,28.95
2023-01-25T05:50:01.643Z,29.70
2023-01-25T05:52:43.064Z,29.10
2023-01-25T05:55:13.264Z,30.67
2023-01-25T05:57:43.138Z,29.38
2023-01-25T06:00:12.357Z,30.25
2023-01-25T06:02:43.292Z,28.42
2023-01-25T06:05:18.014Z,30.42
2023-01-25T06:07:45.997Z,31.95
2023-01-25T06:10:15.003Z,30.60
2023-01-25T06:12:43.691Z,30.80
2023-01-25T06:15:12.302Z,32.03
2023-01-25T06:17:41.030Z,30.92
2023-01-25T06:20:30.622Z,31.20
2023-01-25T06:23:16.795Z,30.13
2023-01-25T06:25:44.611Z,31.88
2023-01-25T06:28:12.351Z,31.70
2023-01-25T06:30:41.609Z,33.17
2023-01-25T06:33:09.711Z,32.90
2023-01-25T06:35:40.469Z,31.55
2023-01-25T06:38:08.643Z,32.08
2023-01-25T06:40:36.603Z,32.38
2023-01-25T06:43:08.515Z,32.40
2023-01-25T06:45:36.311Z,33.17
2023-01-25T06:48:04.319Z,32.40
2023-01-25T06:50:32.283Z,33.65
2023-01-25T06:53:01.393Z,34.20
2023-01-25T06:55:29.242Z,33.63
2023-01-25T06:57:57.106Z,33.90
2023-01-25T07:00:25.000Z,33.78
2023-01-25T07:02:52.898Z,33.90
2023-01-25T07:05:20.727Z,33.72
2023-01-25T07:07:48.599Z,33.35
2023-01-25T07:10:18.006Z,31.83
2023-01-25T07:12:46.012Z,34.22
2023-01-25T07:15:13.768Z,34.05
2023-01-25T07:17:41.716Z,33.85
2023-01-25T07:20:10.906Z,34.17
2023-01-25T07:22:38.725Z,34.67
2023-01-25T07:25:07.842Z,35.42
2023-01-25T07:27:37.865Z,34.35
2023-01-25T07:30:07.089Z,34.75
2023-01-25T07:32:34.959Z,35.22
2023-01-25T07:35:02.860Z,33.88
2023-01-25T07:37:30.789Z,32.67
2023-01-25T07:39:58.640Z,34.45
2023-01-25T07:42:26.627Z,33.20
2023-01-25T07:45:13.332Z,34.45
2023-01-25T07:47:41.228Z,35.30
2023-01-25T07:50:10.459Z,34.40
2023-01-25T07:52:38.424Z,34.97
2023-01-25T07:55:07.474Z,34.97
2023-01-25T07:57:35.552Z,34.30
2023-01-25T08:00:03.949Z,33.42
2023-01-25T08:02:41.711Z,33.95
2023-01-25T08:05:10.919Z,33.25
2023-01-25T08:07:39.055Z,32.50
2023-01-25T08:10:08.175Z,35.28
2023-01-25T08:12:35.973Z,33.00
2023-01-25T08:15:04.316Z,35.65
2023-01-25T08:17:33.328Z,34.55
2023-01-25T08:20:03.019Z,35.90
2023-01-25T08:22:30.860Z,33.88
2023-01-25T08:25:01.209Z,34.30
2023-01-25T08:27:29.103Z,36.00
2023-01-25T08:29:56.932Z,31.83
2023-01-25T08:32:24.829Z,34.70
2023-01-25T08:34:52.683Z,34.88
2023-01-25T08:37:21.975Z,35.05
2023-01-25T08:39:49.860Z,33.67
2023-01-25T08:42:17.832Z,34.13
2023-01-25T08:44:45.759Z,36.20
2023-01-25T08:47:13.919Z,35.55
2023-01-25T08:49:41.709Z,34.17
2023-01-25T08:52:09.656Z,32.40
2023-01-25T08:54:38.859Z,33.40
2023-01-25T08:57:06.561Z,32.75
2023-01-25T08:59:34.687Z,33.28
2023-01-25T09:02:02.546Z,34.28
2023-01-25T09:04:30.544Z,34.20
2023-01-25T09:06:58.712Z,33.50
2023-01-25T09:09:26.670Z,32.83
2023-01-25T09:11:55.930Z,33.30
2023-01-25T09:14:23.985Z,33.17
2023-01-25T09:16:52.229Z,33.22
2023-01-25T09:19:20.076Z,34.13
2023-01-25T09:21:48.523Z,33.17
2023-01-25T09:24:16.433Z,32.90
2023-01-25T09:26:50.137Z,31.95
2023-01-25T09:29:25.010Z,33.67
2023-01-25T09:31:53.166Z,34.78
2023-01-25T09:34:33.044Z,34.53
2023-01-25T09:37:00.901Z,33.58
2023-01-25T09:39:28.794Z,32.83
2023-01-25T09:42:22.687Z,31.88
2023-01-25T09:45:08.956Z,30.90
2023-01-25T09:47:43.624Z,32.15
2023-01-25T09:50:23.896Z,31.67
2023-01-25T09:53:19.993Z,31.20
2023-01-25T09:55:54.015Z,32.67
2023-01-25T10:00:56.032Z,29.98
2023-01-25T10:03:27.305Z,31.50
2023-01-25T10:05:57.887Z,30.27
2023-01-25T10:08:29.303Z,32.42
2023-01-25T10:11:02.134Z,31.05
2023-01-25T10:13:32.079Z,33.30
2023-01-25T10:16:14.661Z,31.75
2023-01-25T10:18:55.361Z,33.30
2023-01-25T10:21:29.678Z,33.10
2023-01-25T10:26:46.373Z,30.50
2023-01-25T10:29:18.178Z,32.38
2023-01-25T10:31:50.481Z,34.55
2023-01-25T10:34:20.592Z,34.72
2023-01-25T10:36:49.599Z,33.78
2023-01-25T10:39:19.224Z,35.33
2023-01-25T10:41:50.087Z,34.17
2023-01-25T10:44:24.723Z,33.00
2023-01-25T10:46:58.903Z,33.40
2023-01-25T10:49:30.756Z,33.63
2023-01-25T10:52:13.658Z,34.42
2023-01-25T10:54:41.449Z,33.90
2023-01-25T10:57:10.179Z,35.03
2023-01-25T10:59:38.369Z,33.33
2023-01-25T11:02:47.873Z,33.78
2023-01-25T11:05:28.192Z,31.42
2023-01-25T11:07:56.571Z,32.45
2023-01-25T11:10:32.511Z,32.80
2023-01-25T11:13:24.113Z,32.67
2023-01-25T11:15:53.370Z,34.55
2023-01-25T11:18:23.944Z,34.00
2023-01-25T11:21:12.595Z,32.95
2023-01-25T11:23:40.733Z,30.20
2023-01-25T11:26:14.480Z,31.85
2023-01-25T11:28:42.966Z,34.13
2023-01-25T11:31:14.216Z,33.85
2023-01-25T11:33:42.651Z,34.55
2023-01-25T11:36:19.925Z,34.53
2023-01-25T11:38:59.509Z,33.83
2023-01-25T11:41:35.150Z,32.78
2023-01-25T11:44:14.133Z,32.25
2023-01-25T11:46:54.097Z,33.40
2023-01-25T11:49:38.618Z,34.10
2023-01-25T11:52:17.322Z,32.55
2023-01-25T11:54:52.587Z,31.52
2023-01-25T11:57:34.914Z,32.33
2023-01-25T12:00:18.983Z,32.35
2023-01-25T12:03:16.610Z,30.85
2023-01-25T12:05:51.669Z,32.20
2023-01-25T12:08:33.105Z,33.80
2023-01-25T12:11:07.579Z,32.78
2023-01-25T12:13:41.795Z,32.78
2023-01-25T12:16:19.363Z,33.25
2023-01-25T12:19:01.896Z,33.63
2023-01-25T12:21:42.085Z,33.25
2023-01-25T12:24:23.515Z,34.28
2023-01-25T12:26:58.148Z,33.33
2023-01-25T12:29:28.341Z,35.17
2023-01-25T12:32:00.095Z,33.78
2023-01-25T12:34:32.644Z,32.40
2023-01-25T12:37:02.036Z,33.50
2023-01-25T12:39:35.728Z,33.65
2023-01-25T12:42:11.793Z,35.40
2023-01-25T12:44:42.998Z,32.38
2023-01-25T12:47:16.408Z,31.92
2023-01-25T12:49:49.734Z,31.73
2023-01-25T12:52:22.691Z,33.63
2023-01-25T12:54:54.429Z,31.67
2023-01-25T12:57:27.069Z,29.97
2023-01-25T13:00:00.995Z,30.48
2023-01-25T13:02:47.977Z,30.33
2023-01-25T13:05:26.562Z,31.17
2023-01-25T13:08:03.383Z,29.98
2023-01-25T13:10:36.743Z,30.73
2023-01-25T13:13:21.996Z,31.08
2023-01-25T13:15:50.012Z,31.38
2023-01-25T13:18:37.587Z,32.50
2023-01-25T13:21:08.388Z,31.50
2023-01-25T13:23:43.874Z,33.50
2023-01-25T13:26:40.298Z,31.15
2023-01-25T13:29:53.017Z,31.48
2023-01-25T13:33:07.067Z,31.65
2023-01-25T13:35:40.831Z,34.33
2023-01-25T13:38:38.494Z,34.85
2023-01-25T13:41:12.186Z,33.03
2023-01-25T13:43:43.622Z,33.17
2023-01-25T13:46:14.775Z,33.58
2023-01-25T13:48:49.863Z,36.03
2023-01-25T13:51:19.235Z,36.40
2023-01-25T13:53:57.309Z,34.90
2023-01-25T13:56:27.687Z,34.78
2023-01-25T13:58:56.886Z,35.72
2023-01-25T14:01:24.998Z,35.67
2023-01-25T14:03:56.678Z,40.70
2023-01-25T14:06:26.271Z,100.03
2023-01-25T14:08:56.717Z,149.73
2023-01-25T14:11:26.767Z,38.95
2023-01-25T14:14:00.865Z,35.90
2023-01-25T14:16:30.183Z,111.68
2023-01-25T14:19:14.905Z,93.20
2023-01-25T14:21:42.726Z,50.40
2023-01-25T14:24:11.302Z,55.60
2023-01-25T14:26:42.113Z,44.70
2023-01-25T14:29:31.727Z,66.20
2023-01-25T14:32:00.623Z,58.03
2023-01-25T14:34:28.437Z,45.15
2023-01-25T14:37:06.988Z,49.45
2023-01-25T14:39:35.234Z,45.88
2023-01-25T14:42:04.468Z,56.70
2023-01-25T14:44:34.711Z,45.92
2023-01-25T14:47:31.059Z,50.53
2023-01-25T14:50:32.213Z,51.05
2023-01-25T14:53:01.516Z,36.78
2023-01-25T14:55:29.791Z,39.90
2023-01-25T14:58:00.121Z,39.35
2023-01-25T15:00:32.211Z,39.47
2023-01-25T15:03:02.118Z,39.45
2023-01-25T15:05:33.122Z,40.25
2023-01-25T15:08:16.633Z,41.55
2023-01-25T15:10:54.721Z,40.30
2023-01-25T15:13:24.452Z,57.58
2023-01-25T15:15:57.960Z,46.05
2023-01-25T15:18:45.497Z,201.73
2023-01-25T15:21:14.597Z,71.15
2023-01-25T15:23:43.129Z,44.38
2023-01-25T15:26:16.341Z,50.47
2023-01-25T15:28:44.167Z,152.93
2023-01-25T15:31:17.747Z,106.28
2023-01-25T15:33:45.772Z,76.18
2023-01-25T15:36:16.000Z,56.00
2023-01-25T15:38:44.129Z,52.55
2023-01-25T15:41:12.440Z,55.35
2023-01-25T15:43:40.791Z,50.60
2023-01-25T15:46:15.113Z,42.45
2023-01-25T15:48:45.964Z,79.93
2023-01-25T15:51:14.354Z,110.88
2023-01-25T15:53:42.471Z,63.72
2023-01-25T15:56:15.318Z,53.05
2023-01-25T15:58:45.484Z,43.13
2023-01-25T16:01:13.285Z,39.58
2023-01-25T16:03:41.702Z,37.70
2023-01-25T16:06:23.679Z,36.80
2023-01-25T16:08:51.686Z,38.10
2023-01-25T16:11:19.452Z,37.20
2023-01-25T16:13:48.048Z,38.10
2023-01-25T16:16:19.366Z,35.53
2023-01-25T16:18:47.359Z,35.67
2023-01-25T16:21:16.997Z,35.72
2023-01-25T16:23:44.952Z,35.08
2023-01-25T16:26:18.879Z,37.38
2023-01-25T16:31:30.217Z,33.17
2023-01-25T16:33:59.745Z,34.83
2023-01-25T16:36:29.545Z,35.97
2023-01-25T16:38:57.301Z,35.78
2023-01-25T16:41:25.349Z,37.22
2023-01-25T16:43:53.606Z,36.40
2023-01-25T16:46:23.011Z,36.63
2023-01-25T16:48:52.498Z,37.88
2023-01-25T16:51:22.835Z,35.85
2023-01-25T16:53:53.595Z,35.60
2023-01-25T16:56:23.258Z,37.50
2023-01-25T16:58:52.104Z,35.88
2023-01-25T17:01:21.660Z,39.17
2023-01-25T17:03:49.835Z,37.90
2023-01-25T17:06:20.210Z,37.70
2023-01-25T17:08:48.151Z,37.53
2023-01-25T17:11:19.190Z,43.03
2023-01-25T17:13:49.316Z,37.72
2023-01-25T17:16:20.499Z,36.42
2023-01-25T17:18:48.954Z,34.75
2023-01-25T17:21:17.784Z,33.88
2023-01-25T17:23:45.802Z,44.38
2023-01-25T17:26:15.203Z,122.60
2023-01-25T17:28:45.620Z,46.53
2023-01-25T17:31:20.232Z,37.92
2023-01-25T17:33:48.157Z,37.85
2023-01-25T17:36:16.305Z,38.08
2023-01-25T17:38:44.518Z,36.90
2023-01-25T17:41:15.032Z,34.47
2023-01-25T17:43:44.736Z,33.65
2023-01-25T17:46:13.757Z,36.33
2023-01-25T17:48:42.300Z,35.65
2023-01-25T17:51:10.522Z,35.28
2023-01-25T17:53:38.411Z,34.17
2023-01-25T17:56:08.475Z,35.30
2023-01-25T17:58:38.432Z,35.95
2023-01-25T18:01:14.351Z,40.05
2023-01-25T18:03:42.702Z,37.88
2023-01-25T18:06:10.784Z,38.83
2023-01-25T18:08:40.725Z,37.72
2023-01-25T18:11:10.383Z,39.92
2023-01-25T18:13:40.437Z,36.13
2023-01-25T18:16:09.595Z,37.63
2023-01-25T18:18:39.644Z,37.72
2023-01-25T18:21:09.066Z,38.55
2023-01-25T18:23:38.330Z,37.65
2023-01-25T18:26:06.674Z,38.58
2023-01-25T18:28:35.691Z,38.55
2023-01-25T18:31:07.218Z,39.63
2023-01-25T18:33:35.128Z,39.22
2023-01-25T18:36:05.573Z,38.47
2023-01-25T18:38:34.281Z,36.63
2023-01-25T18:41:02.335Z,38.58
2023-01-25T18:43:30.315Z,37.60
2023-01-25T18:46:00.126Z,39.47
2023-01-25T18:48:31.372Z,39.08
2023-01-25T18:50:59.941Z,40.08
2023-01-25T18:53:32.430Z,40.67
2023-01-25T18:56:02.052Z,39.22
2023-01-25T18:58:31.566Z,38.03
2023-01-25T19:01:04.385Z,37.65
2023-01-25T19:03:33.067Z,39.87
2023-01-25T19:06:01.115Z,40.42
2023-01-25T19:08:32.500Z,48.47
2023-01-25T19:11:01.473Z,98.07
2023-01-25T19:13:32.157Z,49.17
2023-01-25T19:16:02.339Z,42.22
2023-01-25T19:18:31.917Z,43.20
2023-01-25T19:21:00.419Z,41.60
2023-01-25T19:23:35.008Z,41.22
2023-01-25T19:26:03.114Z,42.17
2023-01-25T19:28:30.977Z,42.10
2023-01-25T19:31:07.078Z,45.45
2023-01-25T19:33:35.174Z,42.58
2023-01-25T19:36:05.269Z,44.00
2023-01-25T19:38:33.254Z,45.78
2023-01-25T19:41:06.564Z,45.15
2023-01-25T19:43:34.726Z,48.40
2023-01-25T19:46:10.098Z,52.13
2023-01-25T19:48:38.647Z,51.95
2023-01-25T19:51:14.251Z,46.88
2023-01-25T19:53:46.481Z,45.10
2023-01-25T19:56:17.119Z,49.67
2023-01-25T19:58:46.446Z,46.75
2023-01-25T20:01:16.093Z,47.80
2023-01-25T20:03:44.039Z,46.47
2023-01-25T20:06:13.222Z,47.05
2023-01-25T20:08:42.790Z,45.55
2023-01-25T20:11:12.936Z,45.72
2023-01-25T20:13:42.967Z,45.65
2023-01-25T20:16:13.949Z,46.88
2023-01-25T20:18:41.805Z,46.35
2023-01-25T20:21:12.682Z,42.47
2023-01-25T20:23:42.097Z,47.85
2023-01-25T20:26:13.795Z,45.80
2023-01-25T20:28:44.381Z,48.05
2023-01-25T20:31:23.652Z,50.08
2023-01-25T20:33:53.021Z,55.70
2023-01-25T20:36:23.929Z,54.42
2023-01-25T20:38:52.076Z,53.53
2023-01-25T20:41:20.026Z,51.00
2023-01-25T20:43:50.799Z,56.20
2023-01-25T20:46:20.062Z,54.92
2023-01-25T20:48:48.780Z,48.00
2023-01-25T20:51:17.821Z,50.83
2023-01-25T20:53:46.650Z,54.55
2023-01-25T20:56:15.359Z,57.08
2023-01-25T20:58:45.470Z,53.83
2023-01-25T21:01:16.217Z,52.42
2023-01-25T21:03:44.175Z,51.85
2023-01-25T21:06:12.518Z,51.83
2023-01-25T21:08:40.915Z,53.85
2023-01-25T21:11:09.191Z,57.65
2023-01-25T21:13:37.363Z,65.72
2023-01-25T21:16:07.643Z,61.10
2023-01-25T21:18:38.306Z,59.97
2023-01-25T21:21:08.087Z,57.47
2023-01-25T21:23:36.886Z,57.13
2023-01-25T21:26:06.758Z,56.80
2023-01-25T21:28:35.788Z,68.30
2023-01-25T21:31:08.824Z,58.85
2023-01-25T21:33:38.611Z,62.28
2023-01-25T21:36:11.759Z,54.90
2023-01-25T21:38:40.202Z,55.38
2023-01-25T21:41:09.343Z,56.33
2023-01-25T21:43:51.341Z,53.13
2023-01-25T21:46:25.511Z,55.85
2023-01-25T21:49:16.013Z,56.67
2023-01-25T21:51:49.528Z,59.75
2023-01-25T21:54:18.853Z,60.95
2023-01-25T21:56:47.701Z,54.97
2023-01-25T21:59:16.398Z,53.55
2023-01-25T22:01:45.092Z,54.33
2023-01-25T22:04:16.073Z,53.70
2023-01-25T22:06:44.433Z,54.97
2023-01-25T22:09:13.932Z,53.20
2023-01-25T22:11:45.851Z,53.67
2023-01-25T22:14:13.816Z,52.05
2023-01-25T22:16:41.731Z,52.55
2023-01-25T22:19:09.782Z,54.05
2023-01-25T22:21:39.206Z,50.47
2023-01-25T22:24:08.560Z,52.25
2023-01-25T22:26:46.067Z,51.15
2023-01-25T22:29:15.014Z,50.22
2023-01-25T22:31:43.199Z,53.10
2023-01-25T22:34:12.217Z,51.50
2023-01-25T22:36:41.318Z,50.67
2023-01-25T22:39:10.221Z,52.10
2023-01-25T22:41:38.778Z,50.75
2023-01-25T22:44:06.746Z,49.75
2023-01-25T22:46:34.973Z,49.85
2023-01-25T22:49:03.663Z,49.80
2023-01-25T22:51:31.836Z,48.42
2023-01-25T22:54:01.423Z,51.92
2023-01-25T22:56:34.742Z,50.17
2023-01-25T22:59:02.934Z,49.97
2023-01-25T23:01:32.390Z,49.95
2023-01-25T23:04:00.860Z,49.40
2023-01-25T23:06:30.513Z,50.50
2023-01-25T23:09:03.398Z,51.70
2023-01-25T23:11:35.766Z,48.88
2023-01-25T23:14:21.580Z,48.40
2023-01-25T23:16:49.461Z,48.97
2023-01-25T23:19:16.451Z,48.30
2023-01-25T23:21:44.361Z,50.22
2023-01-25T23:24:13.641Z,47.47
2023-01-25T23:26:46.516Z,52.60
2023-01-25T23:29:15.193Z,49.17
2023-01-25T23:31:43.287Z,49.83
2023-01-25T23:34:12.459Z,49.03
2023-01-25T23:36:42.324Z,53.65
2023-01-25T23:39:14.765Z,45.65
2023-01-25T23:41:42.646Z,44.30
2023-01-25T23:44:10.511Z,46.40
2023-01-25T23:46:38.443Z,45.70
2023-01-25T23:49:06.325Z,45.70
2023-01-25T23:51:34.175Z,45.80
2023-01-25T23:54:02.070Z,45.53
2023-01-25T23:56:31.409Z,48.22
2023-01-25T23:58:59.270Z,46.65
